sensor_id;sensor_type;location;lat;lon;timestamp;temperature;humidity
42479;DHT22;28110;47.080;9.476;2022-10-17T00:01:11;18.60;96.40
42479;DHT22;28110;47.080;9.476;2022-10-17T00:03:37;18.50;96.10
42479;DHT22;28110;47.080;9.476;2022-10-17T00:06:10;18.50;96.30
42479;DHT22;28110;47.080;9.476;2022-10-17T00:08:37;18.40;96.50
42479;DHT22;28110;47.080;9.476;2022-10-17T00:11:13;18.30;96.50
42479;DHT22;28110;47.080;9.476;2022-10-17T00:13:38;18.30;96.80
42479;DHT22;28110;47.080;9.476;2022-10-17T00:16:04;18.20;96.60
42479;DHT22;28110;47.080;9.476;2022-10-17T00:18:30;18.20;96.80
42479;DHT22;28110;47.080;9.476;2022-10-17T00:20:56;18.10;96.90
42479;DHT22;28110;47.080;9.476;2022-10-17T00:23:21;18.10;97.20
42479;DHT22;28110;47.080;9.476;2022-10-17T00:25:49;18.10;97.00
42479;DHT22;28110;47.080;9.476;2022-10-17T00:28:21;18.20;96.70
42479;DHT22;28110;47.080;9.476;2022-10-17T00:30:57;18.20;96.70
42479;DHT22;28110;47.080;9.476;2022-10-17T00:33:24;18.20;96.50
42479;DHT22;28110;47.080;9.476;2022-10-17T00:35:50;18.10;96.70
42479;DHT22;28110;47.080;9.476;2022-10-17T00:38:15;18.10;96.50
42479;DHT22;28110;47.080;9.476;2022-10-17T00:40:41;18.10;96.80
42479;DHT22;28110;47.080;9.476;2022-10-17T00:43:16;18.00;96.80
42479;DHT22;28110;47.080;9.476;2022-10-17T00:45:42;18.00;96.80
42479;DHT22;28110;47.080;9.476;2022-10-17T00:48:10;18.00;96.70
42479;DHT22;28110;47.080;9.476;2022-10-17T00:50:37;18.00;96.50
42479;DHT22;28110;47.080;9.476;2022-10-17T00:53:04;18.00;96.80
42479;DHT22;28110;47.080;9.476;2022-10-17T00:55:33;18.00;96.60
42479;DHT22;28110;47.080;9.476;2022-10-17T00:58:02;18.00;96.40
42479;DHT22;28110;47.080;9.476;2022-10-17T01:00:28;18.00;96.70
42479;DHT22;28110;47.080;9.476;2022-10-17T01:02:54;18.00;96.40
42479;DHT22;28110;47.080;9.476;2022-10-17T01:05:19;18.00;96.30
42479;DHT22;28110;47.080;9.476;2022-10-17T01:07:46;18.00;96.30
42479;DHT22;28110;47.080;9.476;2022-10-17T01:10:13;18.10;96.10
42479;DHT22;28110;47.080;9.476;2022-10-17T01:12:41;18.10;95.80
42479;DHT22;28110;47.080;9.476;2022-10-17T01:23:37;17.90;96.40
42479;DHT22;28110;47.080;9.476;2022-10-17T01:26:18;17.90;96.20
42479;DHT22;28110;47.080;9.476;2022-10-17T01:31:57;17.90;96.40
42479;DHT22;28110;47.080;9.476;2022-10-17T01:35:13;17.90;96.10
42479;DHT22;28110;47.080;9.476;2022-10-17T01:37:45;17.80;96.10
42479;DHT22;28110;47.080;9.476;2022-10-17T01:40:14;17.90;96.10
42479;DHT22;28110;47.080;9.476;2022-10-17T01:42:47;17.90;96.00
42479;DHT22;28110;47.080;9.476;2022-10-17T01:45:15;18.00;95.50
42479;DHT22;28110;47.080;9.476;2022-10-17T01:47:45;18.00;95.40
42479;DHT22;28110;47.080;9.476;2022-10-17T01:50:17;18.00;95.30
42479;DHT22;28110;47.080;9.476;2022-10-17T01:52:50;18.00;95.20
42479;DHT22;28110;47.080;9.476;2022-10-17T01:55:31;17.90;95.40
42479;DHT22;28110;47.080;9.476;2022-10-17T01:58:11;17.90;95.60
42479;DHT22;28110;47.080;9.476;2022-10-17T02:00:38;17.90;95.80
42479;DHT22;28110;47.080;9.476;2022-10-17T02:03:08;17.90;95.80
42479;DHT22;28110;47.080;9.476;2022-10-17T02:05:40;17.90;95.50
42479;DHT22;28110;47.080;9.476;2022-10-17T02:08:07;17.90;95.40
42479;DHT22;28110;47.080;9.476;2022-10-17T02:10:57;18.00;95.30
42479;DHT22;28110;47.080;9.476;2022-10-17T02:21:56;17.80;95.20
42479;DHT22;28110;47.080;9.476;2022-10-17T02:30:13;17.50;95.70
42479;DHT22;28110;47.080;9.476;2022-10-17T02:32:54;17.40;95.90
42479;DHT22;28110;47.080;9.476;2022-10-17T02:35:24;17.40;95.80
42479;DHT22;28110;47.080;9.476;2022-10-17T02:37:52;17.30;95.80
42479;DHT22;28110;47.080;9.476;2022-10-17T02:40:20;17.40;95.80
42479;DHT22;28110;47.080;9.476;2022-10-17T02:42:47;17.40;95.70
42479;DHT22;28110;47.080;9.476;2022-10-17T02:45:14;17.40;95.50
42479;DHT22;28110;47.080;9.476;2022-10-17T02:47:55;17.30;95.90
42479;DHT22;28110;47.080;9.476;2022-10-17T02:50:39;17.10;95.80
42479;DHT22;28110;47.080;9.476;2022-10-17T02:53:14;17.10;96.00
42479;DHT22;28110;47.080;9.476;2022-10-17T02:55:47;17.10;96.30
42479;DHT22;28110;47.080;9.476;2022-10-17T02:58:22;17.00;96.20
42479;DHT22;28110;47.080;9.476;2022-10-17T03:00:50;17.10;96.10
42479;DHT22;28110;47.080;9.476;2022-10-17T03:03:21;17.00;96.10
42479;DHT22;28110;47.080;9.476;2022-10-17T03:05:46;17.00;96.40
42479;DHT22;28110;47.080;9.476;2022-10-17T03:08:12;16.90;96.30
42479;DHT22;28110;47.080;9.476;2022-10-17T03:10:37;16.90;96.50
42479;DHT22;28110;47.080;9.476;2022-10-17T03:13:03;16.80;96.70
42479;DHT22;28110;47.080;9.476;2022-10-17T03:15:28;16.80;96.70
42479;DHT22;28110;47.080;9.476;2022-10-17T03:17:54;16.80;96.70
42479;DHT22;28110;47.080;9.476;2022-10-17T03:20:20;16.70;96.90
42479;DHT22;28110;47.080;9.476;2022-10-17T03:22:45;16.70;96.70
42479;DHT22;28110;47.080;9.476;2022-10-17T03:25:11;16.70;96.70
42479;DHT22;28110;47.080;9.476;2022-10-17T03:27:36;16.70;96.80
42479;DHT22;28110;47.080;9.476;2022-10-17T03:30:02;16.60;97.00
42479;DHT22;28110;47.080;9.476;2022-10-17T03:32:28;16.60;96.90
42479;DHT22;28110;47.080;9.476;2022-10-17T03:34:53;16.60;96.80
42479;DHT22;28110;47.080;9.476;2022-10-17T03:37:19;16.70;96.70
42479;DHT22;28110;47.080;9.476;2022-10-17T03:39:44;16.70;96.50
42479;DHT22;28110;47.080;9.476;2022-10-17T03:42:10;16.80;96.20
42479;DHT22;28110;47.080;9.476;2022-10-17T03:44:35;16.80;96.30
42479;DHT22;28110;47.080;9.476;2022-10-17T03:47:01;16.80;96.20
42479;DHT22;28110;47.080;9.476;2022-10-17T03:49:27;16.80;96.40
42479;DHT22;28110;47.080;9.476;2022-10-17T03:51:52;16.80;96.40
42479;DHT22;28110;47.080;9.476;2022-10-17T03:54:18;16.80;96.40
42479;DHT22;28110;47.080;9.476;2022-10-17T03:56:43;16.70;96.60
42479;DHT22;28110;47.080;9.476;2022-10-17T03:59:13;16.70;96.70
42479;DHT22;28110;47.080;9.476;2022-10-17T04:01:39;16.70;96.60
42479;DHT22;28110;47.080;9.476;2022-10-17T04:04:04;16.60;96.90
42479;DHT22;28110;47.080;9.476;2022-10-17T04:06:30;16.60;96.80
42479;DHT22;28110;47.080;9.476;2022-10-17T04:08:56;16.60;96.70
42479;DHT22;28110;47.080;9.476;2022-10-17T04:11:21;16.60;96.70
42479;DHT22;28110;47.080;9.476;2022-10-17T04:13:51;16.70;96.40
42479;DHT22;28110;47.080;9.476;2022-10-17T04:16:16;16.70;96.40
42479;DHT22;28110;47.080;9.476;2022-10-17T04:18:43;16.80;96.30
42479;DHT22;28110;47.080;9.476;2022-10-17T04:21:09;16.80;96.10
42479;DHT22;28110;47.080;9.476;2022-10-17T04:23:35;16.70;96.40
42479;DHT22;28110;47.080;9.476;2022-10-17T04:26:01;16.70;96.60
42479;DHT22;28110;47.080;9.476;2022-10-17T04:28:28;16.60;96.70
42479;DHT22;28110;47.080;9.476;2022-10-17T04:31:10;16.70;96.40
42479;DHT22;28110;47.080;9.476;2022-10-17T04:33:36;16.60;96.40
42479;DHT22;28110;47.080;9.476;2022-10-17T04:36:05;16.60;96.60
42479;DHT22;28110;47.080;9.476;2022-10-17T04:38:31;16.60;96.70
42479;DHT22;28110;47.080;9.476;2022-10-17T04:41:00;16.50;96.40
42479;DHT22;28110;47.080;9.476;2022-10-17T04:43:28;16.50;96.60
42479;DHT22;28110;47.080;9.476;2022-10-17T04:45:53;16.60;96.10
42479;DHT22;28110;47.080;9.476;2022-10-17T04:48:20;16.60;96.20
42479;DHT22;28110;47.080;9.476;2022-10-17T04:51:02;16.60;96.20
42479;DHT22;28110;47.080;9.476;2022-10-17T04:53:31;16.60;96.10
42479;DHT22;28110;47.080;9.476;2022-10-17T04:55:57;16.70;96.10
42479;DHT22;28110;47.080;9.476;2022-10-17T04:58:23;16.70;96.10
42479;DHT22;28110;47.080;9.476;2022-10-17T05:00:49;16.80;96.00
42479;DHT22;28110;47.080;9.476;2022-10-17T05:03:14;16.80;95.80
42479;DHT22;28110;47.080;9.476;2022-10-17T05:05:41;16.90;95.40
42479;DHT22;28110;47.080;9.476;2022-10-17T05:08:08;16.80;95.60
42479;DHT22;28110;47.080;9.476;2022-10-17T05:10:38;16.70;95.70
42479;DHT22;28110;47.080;9.476;2022-10-17T05:13:04;16.70;95.60
42479;DHT22;28110;47.080;9.476;2022-10-17T05:15:30;16.70;95.80
42479;DHT22;28110;47.080;9.476;2022-10-17T05:17:56;16.70;96.10
42479;DHT22;28110;47.080;9.476;2022-10-17T05:20:22;16.60;96.10
42479;DHT22;28110;47.080;9.476;2022-10-17T05:22:48;16.60;96.00
42479;DHT22;28110;47.080;9.476;2022-10-17T05:25:14;16.50;96.00
42479;DHT22;28110;47.080;9.476;2022-10-17T05:27:39;16.50;96.10
42479;DHT22;28110;47.080;9.476;2022-10-17T05:30:06;16.50;96.00
42479;DHT22;28110;47.080;9.476;2022-10-17T05:32:31;16.50;95.80
42479;DHT22;28110;47.080;9.476;2022-10-17T05:34:57;16.50;95.90
42479;DHT22;28110;47.080;9.476;2022-10-17T05:37:22;16.50;96.10
42479;DHT22;28110;47.080;9.476;2022-10-17T05:39:48;16.50;96.30
42479;DHT22;28110;47.080;9.476;2022-10-17T05:42:14;16.40;96.10
42479;DHT22;28110;47.080;9.476;2022-10-17T05:44:39;16.40;96.60
42479;DHT22;28110;47.080;9.476;2022-10-17T05:47:06;16.40;96.20
42479;DHT22;28110;47.080;9.476;2022-10-17T05:49:32;16.40;96.40
42479;DHT22;28110;47.080;9.476;2022-10-17T05:51:57;16.40;96.10
42479;DHT22;28110;47.080;9.476;2022-10-17T05:54:23;16.40;96.20
42479;DHT22;28110;47.080;9.476;2022-10-17T05:56:52;16.40;96.00
42479;DHT22;28110;47.080;9.476;2022-10-17T05:59:18;16.40;96.10
42479;DHT22;28110;47.080;9.476;2022-10-17T06:01:44;16.30;96.70
42479;DHT22;28110;47.080;9.476;2022-10-17T06:04:09;16.20;96.50
42479;DHT22;28110;47.080;9.476;2022-10-17T06:06:36;16.20;96.90
42479;DHT22;28110;47.080;9.476;2022-10-17T06:09:03;16.10;97.20
42479;DHT22;28110;47.080;9.476;2022-10-17T06:11:29;16.00;97.40
42479;DHT22;28110;47.080;9.476;2022-10-17T06:13:55;15.90;97.60
42479;DHT22;28110;47.080;9.476;2022-10-17T06:16:20;15.90;98.00
42479;DHT22;28110;47.080;9.476;2022-10-17T06:18:46;15.80;98.00
42479;DHT22;28110;47.080;9.476;2022-10-17T06:21:22;15.90;97.30
42479;DHT22;28110;47.080;9.476;2022-10-17T06:23:47;16.00;96.90
42479;DHT22;28110;47.080;9.476;2022-10-17T06:26:13;16.10;96.50
42479;DHT22;28110;47.080;9.476;2022-10-17T06:28:39;16.30;95.70
42479;DHT22;28110;47.080;9.476;2022-10-17T06:31:07;16.30;95.70
42479;DHT22;28110;47.080;9.476;2022-10-17T06:33:33;16.30;95.80
42479;DHT22;28110;47.080;9.476;2022-10-17T06:35:58;16.40;95.80
42479;DHT22;28110;47.080;9.476;2022-10-17T06:38:24;16.30;95.80
42479;DHT22;28110;47.080;9.476;2022-10-17T06:40:50;16.30;96.10
42479;DHT22;28110;47.080;9.476;2022-10-17T06:43:18;16.30;96.00
42479;DHT22;28110;47.080;9.476;2022-10-17T06:45:45;16.30;95.80
42479;DHT22;28110;47.080;9.476;2022-10-17T06:48:10;16.30;96.00
42479;DHT22;28110;47.080;9.476;2022-10-17T06:50:36;16.30;96.50
42479;DHT22;28110;47.080;9.476;2022-10-17T06:53:01;16.20;96.30
42479;DHT22;28110;47.080;9.476;2022-10-17T06:55:27;16.30;95.90
42479;DHT22;28110;47.080;9.476;2022-10-17T06:57:55;16.30;96.10
42479;DHT22;28110;47.080;9.476;2022-10-17T07:00:21;16.40;95.50
42479;DHT22;28110;47.080;9.476;2022-10-17T07:02:48;16.40;95.70
42479;DHT22;28110;47.080;9.476;2022-10-17T07:05:13;16.50;95.30
42479;DHT22;28110;47.080;9.476;2022-10-17T07:07:39;16.40;95.60
42479;DHT22;28110;47.080;9.476;2022-10-17T07:10:05;16.40;95.70
42479;DHT22;28110;47.080;9.476;2022-10-17T07:12:33;16.40;94.80
42479;DHT22;28110;47.080;9.476;2022-10-17T07:14:59;16.60;94.40
42479;DHT22;28110;47.080;9.476;2022-10-17T07:17:25;16.60;94.50
42479;DHT22;28110;47.080;9.476;2022-10-17T07:19:50;16.70;94.80
42479;DHT22;28110;47.080;9.476;2022-10-17T07:22:16;16.70;94.40
42479;DHT22;28110;47.080;9.476;2022-10-17T07:24:41;16.80;94.10
42479;DHT22;28110;47.080;9.476;2022-10-17T07:27:07;16.90;93.80
42479;DHT22;28110;47.080;9.476;2022-10-17T07:29:32;17.00;93.90
42479;DHT22;28110;47.080;9.476;2022-10-17T07:31:58;17.00;93.60
42479;DHT22;28110;47.080;9.476;2022-10-17T07:34:24;17.10;93.80
42479;DHT22;28110;47.080;9.476;2022-10-17T07:36:55;17.00;93.80
42479;DHT22;28110;47.080;9.476;2022-10-17T07:39:20;17.00;93.50
42479;DHT22;28110;47.080;9.476;2022-10-17T07:41:48;17.00;93.80
42479;DHT22;28110;47.080;9.476;2022-10-17T07:44:13;17.00;93.70
42479;DHT22;28110;47.080;9.476;2022-10-17T07:46:39;17.10;94.20
42479;DHT22;28110;47.080;9.476;2022-10-17T07:49:05;17.20;94.20
42479;DHT22;28110;47.080;9.476;2022-10-17T07:51:30;17.30;94.70
42479;DHT22;28110;47.080;9.476;2022-10-17T07:53:56;17.40;94.70
42479;DHT22;28110;47.080;9.476;2022-10-17T07:56:21;17.50;93.50
42479;DHT22;28110;47.080;9.476;2022-10-17T07:58:49;17.60;93.40
42479;DHT22;28110;47.080;9.476;2022-10-17T08:01:15;17.60;93.60
42479;DHT22;28110;47.080;9.476;2022-10-17T08:03:46;17.60;93.70
42479;DHT22;28110;47.080;9.476;2022-10-17T08:06:13;17.70;93.30
42479;DHT22;28110;47.080;9.476;2022-10-17T08:08:39;17.80;92.80
42479;DHT22;28110;47.080;9.476;2022-10-17T08:11:08;17.90;92.00
42479;DHT22;28110;47.080;9.476;2022-10-17T08:13:34;18.00;92.10
42479;DHT22;28110;47.080;9.476;2022-10-17T08:16:05;18.10;91.80
42479;DHT22;28110;47.080;9.476;2022-10-17T08:18:32;18.20;92.00
42479;DHT22;28110;47.080;9.476;2022-10-17T08:21:02;18.30;91.80
42479;DHT22;28110;47.080;9.476;2022-10-17T08:23:30;18.40;91.30
42479;DHT22;28110;47.080;9.476;2022-10-17T08:25:58;18.40;91.20
42479;DHT22;28110;47.080;9.476;2022-10-17T08:28:24;18.50;91.80
42479;DHT22;28110;47.080;9.476;2022-10-17T08:30:50;18.60;91.70
42479;DHT22;28110;47.080;9.476;2022-10-17T08:33:15;18.70;91.40
42479;DHT22;28110;47.080;9.476;2022-10-17T08:35:41;18.70;90.70
42479;DHT22;28110;47.080;9.476;2022-10-17T08:38:07;18.70;90.80
42479;DHT22;28110;47.080;9.476;2022-10-17T08:40:32;18.70;91.10
42479;DHT22;28110;47.080;9.476;2022-10-17T08:45:55;18.90;91.10
42479;DHT22;28110;47.080;9.476;2022-10-17T08:48:26;18.90;90.70
42479;DHT22;28110;47.080;9.476;2022-10-17T08:50:56;19.00;91.30
42479;DHT22;28110;47.080;9.476;2022-10-17T08:53:41;19.10;92.00
42479;DHT22;28110;47.080;9.476;2022-10-17T08:58:45;19.20;91.50
42479;DHT22;28110;47.080;9.476;2022-10-17T09:07:29;19.50;89.70
42479;DHT22;28110;47.080;9.476;2022-10-17T09:09:33;19.50;90.80
42479;DHT22;28110;47.080;9.476;2022-10-17T09:15:15;19.60;90.70
42479;DHT22;28110;47.080;9.476;2022-10-17T09:17:57;19.70;92.00
42479;DHT22;28110;47.080;9.476;2022-10-17T09:20:44;19.80;90.80
42479;DHT22;28110;47.080;9.476;2022-10-17T09:23:24;19.90;90.40
42479;DHT22;28110;47.080;9.476;2022-10-17T09:25:57;19.90;90.50
42479;DHT22;28110;47.080;9.476;2022-10-17T09:31:04;20.20;90.90
42479;DHT22;28110;47.080;9.476;2022-10-17T09:33:38;20.20;89.10
42479;DHT22;28110;47.080;9.476;2022-10-17T09:36:30;20.30;88.60
42479;DHT22;28110;47.080;9.476;2022-10-17T09:39:10;20.40;86.20
42479;DHT22;28110;47.080;9.476;2022-10-17T09:41:40;20.40;87.80
42479;DHT22;28110;47.080;9.476;2022-10-17T09:44:16;20.50;89.20
42479;DHT22;28110;47.080;9.476;2022-10-17T09:49:31;20.60;87.00
42479;DHT22;28110;47.080;9.476;2022-10-17T09:51:57;20.70;86.30
42479;DHT22;28110;47.080;9.476;2022-10-17T09:54:26;20.70;84.30
42479;DHT22;28110;47.080;9.476;2022-10-17T09:57:05;20.80;83.70
42479;DHT22;28110;47.080;9.476;2022-10-17T09:59:34;20.90;84.40
42479;DHT22;28110;47.080;9.476;2022-10-17T10:02:19;21.00;84.30
42479;DHT22;28110;47.080;9.476;2022-10-17T10:05:02;21.10;83.90
42479;DHT22;28110;47.080;9.476;2022-10-17T10:07:31;21.20;83.70
42479;DHT22;28110;47.080;9.476;2022-10-17T10:09:58;21.30;85.20
42479;DHT22;28110;47.080;9.476;2022-10-17T10:12:27;21.30;83.80
42479;DHT22;28110;47.080;9.476;2022-10-17T10:14:53;21.30;84.20
42479;DHT22;28110;47.080;9.476;2022-10-17T10:17:30;21.40;84.80
42479;DHT22;28110;47.080;9.476;2022-10-17T10:19:58;21.40;82.80
42479;DHT22;28110;47.080;9.476;2022-10-17T10:22:24;21.40;84.40
42479;DHT22;28110;47.080;9.476;2022-10-17T10:27:34;21.50;86.30
42479;DHT22;28110;47.080;9.476;2022-10-17T10:30:00;21.60;86.30
42479;DHT22;28110;47.080;9.476;2022-10-17T10:32:36;21.60;90.10
42479;DHT22;28110;47.080;9.476;2022-10-17T10:35:15;21.70;84.90
42479;DHT22;28110;47.080;9.476;2022-10-17T10:37:46;21.80;85.10
42479;DHT22;28110;47.080;9.476;2022-10-17T10:40:20;21.80;87.40
42479;DHT22;28110;47.080;9.476;2022-10-17T10:42:49;21.80;87.10
42479;DHT22;28110;47.080;9.476;2022-10-17T10:48:17;22.00;85.30
42479;DHT22;28110;47.080;9.476;2022-10-17T10:50:45;22.00;86.50
42479;DHT22;28110;47.080;9.476;2022-10-17T11:07:20;22.20;85.80
42479;DHT22;28110;47.080;9.476;2022-10-17T11:09:59;22.20;85.80
42479;DHT22;28110;47.080;9.476;2022-10-17T11:12:32;22.20;86.80
42479;DHT22;28110;47.080;9.476;2022-10-17T11:15:03;22.30;86.70
42479;DHT22;28110;47.080;9.476;2022-10-17T11:17:38;22.30;87.20
42479;DHT22;28110;47.080;9.476;2022-10-17T11:22:51;22.30;86.80
42479;DHT22;28110;47.080;9.476;2022-10-17T11:25:37;22.30;89.20
42479;DHT22;28110;47.080;9.476;2022-10-17T11:28:12;22.30;87.90
42479;DHT22;28110;47.080;9.476;2022-10-17T11:30:55;22.30;89.20
42479;DHT22;28110;47.080;9.476;2022-10-17T11:34:10;22.30;89.90
42479;DHT22;28110;47.080;9.476;2022-10-17T11:36:11;22.40;89.30
42479;DHT22;28110;47.080;9.476;2022-10-17T11:38:59;22.40;87.60
42479;DHT22;28110;47.080;9.476;2022-10-17T11:41:36;22.30;88.50
42479;DHT22;28110;47.080;9.476;2022-10-17T11:44:17;22.30;89.40
42479;DHT22;28110;47.080;9.476;2022-10-17T11:46:46;22.40;91.80
42479;DHT22;28110;47.080;9.476;2022-10-17T11:49:19;22.30;90.70
42479;DHT22;28110;47.080;9.476;2022-10-17T11:51:51;22.30;90.10
42479;DHT22;28110;47.080;9.476;2022-10-17T11:54:25;22.30;90.00
42479;DHT22;28110;47.080;9.476;2022-10-17T11:57:25;22.30;85.50
42479;DHT22;28110;47.080;9.476;2022-10-17T12:05:59;22.30;90.50
42479;DHT22;28110;47.080;9.476;2022-10-17T12:08:42;22.40;89.60
42479;DHT22;28110;47.080;9.476;2022-10-17T12:11:22;22.40;89.80
42479;DHT22;28110;47.080;9.476;2022-10-17T12:13:54;22.50;88.70
42479;DHT22;28110;47.080;9.476;2022-10-17T12:21:27;22.50;87.50
42479;DHT22;28110;47.080;9.476;2022-10-17T12:23:54;22.50;87.60
42479;DHT22;28110;47.080;9.476;2022-10-17T12:26:28;22.60;90.00
42479;DHT22;28110;47.080;9.476;2022-10-17T12:28:54;22.50;89.50
42479;DHT22;28110;47.080;9.476;2022-10-17T12:31:23;22.50;89.60
42479;DHT22;28110;47.080;9.476;2022-10-17T12:33:54;22.50;87.90
42479;DHT22;28110;47.080;9.476;2022-10-17T12:46:50;22.70;87.80
42479;DHT22;28110;47.080;9.476;2022-10-17T12:49:44;22.70;86.70
42479;DHT22;28110;47.080;9.476;2022-10-17T13:00:16;22.70;87.10
42479;DHT22;28110;47.080;9.476;2022-10-17T13:02:43;22.70;88.10
42479;DHT22;28110;47.080;9.476;2022-10-17T13:05:33;22.70;87.30
42479;DHT22;28110;47.080;9.476;2022-10-17T13:08:02;22.70;87.20
42479;DHT22;28110;47.080;9.476;2022-10-17T13:10:31;22.70;87.40
42479;DHT22;28110;47.080;9.476;2022-10-17T13:13:19;22.70;85.70
42479;DHT22;28110;47.080;9.476;2022-10-17T13:15:50;22.70;87.70
42479;DHT22;28110;47.080;9.476;2022-10-17T13:18:27;22.70;87.80
42479;DHT22;28110;47.080;9.476;2022-10-17T13:23:38;22.60;89.30
42479;DHT22;28110;47.080;9.476;2022-10-17T13:26:16;22.60;89.80
42479;DHT22;28110;47.080;9.476;2022-10-17T13:28:46;22.50;90.20
42479;DHT22;28110;47.080;9.476;2022-10-17T13:31:40;22.40;90.80
42479;DHT22;28110;47.080;9.476;2022-10-17T13:34:18;22.40;91.40
42479;DHT22;28110;47.080;9.476;2022-10-17T13:36:47;22.30;91.80
42479;DHT22;28110;47.080;9.476;2022-10-17T13:39:16;22.20;92.80
42479;DHT22;28110;47.080;9.476;2022-10-17T13:41:42;22.30;93.20
42479;DHT22;28110;47.080;9.476;2022-10-17T13:44:15;22.20;93.70
42479;DHT22;28110;47.080;9.476;2022-10-17T13:46:42;22.00;94.20
42479;DHT22;28110;47.080;9.476;2022-10-17T13:49:31;22.10;94.30
42479;DHT22;28110;47.080;9.476;2022-10-17T13:51:58;22.10;95.60
42479;DHT22;28110;47.080;9.476;2022-10-17T13:56:56;22.10;96.60
42479;DHT22;28110;47.080;9.476;2022-10-17T13:59:27;22.00;97.10
42479;DHT22;28110;47.080;9.476;2022-10-17T14:01:54;21.90;98.30
42479;DHT22;28110;47.080;9.476;2022-10-17T14:04:21;21.90;98.30
42479;DHT22;28110;47.080;9.476;2022-10-17T14:06:47;21.90;98.50
42479;DHT22;28110;47.080;9.476;2022-10-17T14:09:23;21.80;98.70
42479;DHT22;28110;47.080;9.476;2022-10-17T14:12:16;21.70;99.80
42479;DHT22;28110;47.080;9.476;2022-10-17T14:14:51;21.70;99.90
42479;DHT22;28110;47.080;9.476;2022-10-17T14:17:24;21.60;99.90
42479;DHT22;28110;47.080;9.476;2022-10-17T14:20:02;21.50;99.90
42479;DHT22;28110;47.080;9.476;2022-10-17T14:22:29;21.50;99.90
42479;DHT22;28110;47.080;9.476;2022-10-17T14:24:54;21.50;99.90
42479;DHT22;28110;47.080;9.476;2022-10-17T14:27:37;21.40;99.90
42479;DHT22;28110;47.080;9.476;2022-10-17T14:32:53;21.20;99.90
42479;DHT22;28110;47.080;9.476;2022-10-17T14:35:19;21.10;99.90
42479;DHT22;28110;47.080;9.476;2022-10-17T14:37:47;21.10;99.90
42479;DHT22;28110;47.080;9.476;2022-10-17T14:40:18;21.20;99.90
42479;DHT22;28110;47.080;9.476;2022-10-17T14:42:44;21.20;99.90
42479;DHT22;28110;47.080;9.476;2022-10-17T14:45:25;21.10;99.90
42479;DHT22;28110;47.080;9.476;2022-10-17T14:47:53;21.10;99.90
42479;DHT22;28110;47.080;9.476;2022-10-17T14:50:28;21.10;99.90
42479;DHT22;28110;47.080;9.476;2022-10-17T14:55:35;20.90;99.90
42479;DHT22;28110;47.080;9.476;2022-10-17T14:58:18;20.80;99.90
42479;DHT22;28110;47.080;9.476;2022-10-17T15:00:45;20.80;99.90
42479;DHT22;28110;47.080;9.476;2022-10-17T15:03:11;20.80;99.90
42479;DHT22;28110;47.080;9.476;2022-10-17T15:05:38;20.80;99.90
42479;DHT22;28110;47.080;9.476;2022-10-17T15:08:09;20.70;99.90
42479;DHT22;28110;47.080;9.476;2022-10-17T15:10:37;20.70;99.90
42479;DHT22;28110;47.080;9.476;2022-10-17T15:13:06;20.60;99.90
42479;DHT22;28110;47.080;9.476;2022-10-17T15:15:32;20.50;99.90
42479;DHT22;28110;47.080;9.476;2022-10-17T15:17:58;20.50;99.90
42479;DHT22;28110;47.080;9.476;2022-10-17T15:20:25;20.40;99.90
42479;DHT22;28110;47.080;9.476;2022-10-17T15:22:57;20.40;99.90
42479;DHT22;28110;47.080;9.476;2022-10-17T15:25:23;20.30;99.90
42479;DHT22;28110;47.080;9.476;2022-10-17T15:27:49;20.30;99.90
42479;DHT22;28110;47.080;9.476;2022-10-17T15:30:28;20.20;99.90
42479;DHT22;28110;47.080;9.476;2022-10-17T15:32:55;20.20;99.90
42479;DHT22;28110;47.080;9.476;2022-10-17T15:35:21;20.10;99.90
42479;DHT22;28110;47.080;9.476;2022-10-17T15:37:47;20.10;99.90
42479;DHT22;28110;47.080;9.476;2022-10-17T15:40:16;20.00;99.90
42479;DHT22;28110;47.080;9.476;2022-10-17T15:42:42;20.00;99.90
42479;DHT22;28110;47.080;9.476;2022-10-17T15:45:10;20.00;99.90
42479;DHT22;28110;47.080;9.476;2022-10-17T15:47:36;19.90;99.90
42479;DHT22;28110;47.080;9.476;2022-10-17T15:50:03;20.00;99.90
42479;DHT22;28110;47.080;9.476;2022-10-17T15:52:30;19.90;99.90
42479;DHT22;28110;47.080;9.476;2022-10-17T15:54:55;19.90;99.90
42479;DHT22;28110;47.080;9.476;2022-10-17T15:57:33;19.80;99.90
42479;DHT22;28110;47.080;9.476;2022-10-17T16:00:00;19.80;99.90
42479;DHT22;28110;47.080;9.476;2022-10-17T16:02:26;19.70;99.90
42479;DHT22;28110;47.080;9.476;2022-10-17T16:04:52;19.60;99.90
42479;DHT22;28110;47.080;9.476;2022-10-17T16:07:19;19.50;99.90
42479;DHT22;28110;47.080;9.476;2022-10-17T16:09:45;19.50;99.90
42479;DHT22;28110;47.080;9.476;2022-10-17T16:12:25;19.40;99.90
42479;DHT22;28110;47.080;9.476;2022-10-17T16:14:51;19.30;99.90
42479;DHT22;28110;47.080;9.476;2022-10-17T16:17:16;19.30;99.90
42479;DHT22;28110;47.080;9.476;2022-10-17T16:19:42;19.20;99.90
42479;DHT22;28110;47.080;9.476;2022-10-17T16:22:19;19.20;99.90
42479;DHT22;28110;47.080;9.476;2022-10-17T16:24:45;19.00;99.90
42479;DHT22;28110;47.080;9.476;2022-10-17T16:27:10;19.00;99.90
42479;DHT22;28110;47.080;9.476;2022-10-17T16:29:36;18.90;99.90
42479;DHT22;28110;47.080;9.476;2022-10-17T16:32:01;18.90;99.90
42479;DHT22;28110;47.080;9.476;2022-10-17T16:34:27;18.80;99.90
42479;DHT22;28110;47.080;9.476;2022-10-17T16:36:54;18.80;99.90
42479;DHT22;28110;47.080;9.476;2022-10-17T16:39:20;18.70;99.90
42479;DHT22;28110;47.080;9.476;2022-10-17T16:41:45;18.60;99.90
42479;DHT22;28110;47.080;9.476;2022-10-17T16:44:11;18.50;99.90
42479;DHT22;28110;47.080;9.476;2022-10-17T16:46:39;18.50;99.90
42479;DHT22;28110;47.080;9.476;2022-10-17T16:49:05;18.50;99.90
42479;DHT22;28110;47.080;9.476;2022-10-17T16:51:31;18.40;99.90
42479;DHT22;28110;47.080;9.476;2022-10-17T16:54:00;18.40;99.90
42479;DHT22;28110;47.080;9.476;2022-10-17T16:56:26;18.30;99.90
42479;DHT22;28110;47.080;9.476;2022-10-17T16:58:57;18.30;99.90
42479;DHT22;28110;47.080;9.476;2022-10-17T17:01:23;18.20;99.90
42479;DHT22;28110;47.080;9.476;2022-10-17T17:03:50;18.20;99.90
42479;DHT22;28110;47.080;9.476;2022-10-17T17:06:24;18.10;99.90
42479;DHT22;28110;47.080;9.476;2022-10-17T17:08:51;18.10;99.90
42479;DHT22;28110;47.080;9.476;2022-10-17T17:11:18;18.10;99.90
42479;DHT22;28110;47.080;9.476;2022-10-17T17:13:44;18.10;99.90
42479;DHT22;28110;47.080;9.476;2022-10-17T17:16:15;18.00;99.90
42479;DHT22;28110;47.080;9.476;2022-10-17T17:18:41;18.00;99.90
42479;DHT22;28110;47.080;9.476;2022-10-17T17:21:08;18.00;99.90
42479;DHT22;28110;47.080;9.476;2022-10-17T17:23:36;18.00;99.90
42479;DHT22;28110;47.080;9.476;2022-10-17T17:26:05;17.90;99.90
42479;DHT22;28110;47.080;9.476;2022-10-17T17:28:32;17.90;99.90
42479;DHT22;28110;47.080;9.476;2022-10-17T17:30:58;17.80;99.90
42479;DHT22;28110;47.080;9.476;2022-10-17T17:33:24;17.80;99.90